Time;durP1;ratioP1;P1;durP2;ratioP2;P2;SDS_P1;SDS_P2;PMS_P1;PMS_P2;Temp;Humidity;BMP_temperature;BMP_pressure;BME280_temperature;BME280_humidity;BME280_pressure;Samples;Min_cycle;Max_cycle;Signal;HPM_P1;HPM_P2
2023/09/13 00:02:21;;;;;;;;;;;;;;;18.54;100.00;101357.59;5033940;28;19986;-73
2023/09/13 00:04:47;;;;;;;;;;;;;;;18.56;100.00;101363.66;5034755;28;19924;-73
2023/09/13 00:07:12;;;;;;;;;;;;;;;18.55;100.00;101356.63;5034123;28;19989;-72
2023/09/13 00:09:41;;;;;;;;;;;;;;;18.54;100.00;101363.75;5034187;28;20194;-72
2023/09/13 00:12:09;;;;;;;;;;;;;;;18.55;100.00;101365.44;5033952;28;20009;-72
2023/09/13 00:14:34;;;;;;;;;;;;;;;18.55;100.00;101359.28;5036554;28;19917;-72
2023/09/13 00:17:00;;;;;;;;;;;;;;;18.56;100.00;101351.22;5036346;28;20253;-72
2023/09/13 00:19:28;;;;;;;;;;;;;;;18.57;100.00;101360.91;5037659;28;19914;-73
2023/09/13 00:21:53;;;;;;;;;;;;;;;18.58;100.00;101359.09;5037226;28;20127;-73
2023/09/13 00:24:18;;;;;;;;;;;;;;;18.60;100.00;101354.53;5037526;28;19945;-73
2023/09/13 00:26:44;;;;;;;;;;;;;;;18.61;100.00;101362.38;5019587;28;19925;-73
2023/09/13 00:29:09;;;;;;;;;;;;;;;18.62;100.00;101363.22;5037878;28;19917;-73
2023/09/13 00:31:34;;;;;;;;;;;;;;;18.61;100.00;101359.72;5037210;28;19993;-73
2023/09/13 00:33:59;;;;;;;;;;;;;;;18.62;100.00;101352.63;5037641;28;19924;-73
2023/09/13 00:36:25;;;;;;;;;;;;;;;18.62;100.00;101347.31;5037198;28;19913;-73
2023/09/13 00:38:50;;;;;;;;;;;;;;;18.63;100.00;101348.16;5037835;28;19976;-73
2023/09/13 00:41:15;;;;;;;;;;;;;;;18.61;100.00;101349.13;5037604;28;19916;-73
2023/09/13 00:43:41;;;;;;;;;;;;;;;18.61;100.00;101353.59;5037014;28;19980;-73
2023/09/13 00:46:06;;;;;;;;;;;;;;;18.61;100.00;101342.97;5037553;28;19921;-73
2023/09/13 00:48:35;;;;;;;;;;;;;;;18.59;100.00;101339.53;5037146;28;19913;-73
2023/09/13 00:51:01;;;;;;;;;;;;;;;18.58;100.00;101345.81;5037384;28;19925;-73
2023/09/13 00:53:26;;;;;;;;;;;;;;;18.56;100.00;101347.72;5036215;28;20240;-73
2023/09/13 00:55:53;;;;;;;;;;;;;;;18.56;100.00;101345.91;5037216;28;20003;-73
2023/09/13 00:58:18;;;;;;;;;;;;;;;18.55;100.00;101346.84;5036400;28;19912;-73
2023/09/13 01:00:44;;;;;;;;;;;;;;;18.54;100.00;101347.00;5037167;28;19917;-73
2023/09/13 01:03:09;;;;;;;;;;;;;;;18.53;100.00;101354.06;5036846;28;19912;-73
2023/09/13 01:05:36;;;;;;;;;;;;;;;18.52;100.00;101352.38;5036729;28;20131;-73
2023/09/13 01:08:03;;;;;;;;;;;;;;;18.49;100.00;101352.59;5036863;28;19916;-73
2023/09/13 01:10:28;;;;;;;;;;;;;;;18.48;100.00;101345.59;5036931;28;19917;-73
2023/09/13 01:12:53;;;;;;;;;;;;;;;18.46;100.00;101344.81;5036967;28;19920;-73
2023/09/13 01:15:18;;;;;;;;;;;;;;;18.45;100.00;101344.94;5036495;28;19951;-73
2023/09/13 01:17:44;;;;;;;;;;;;;;;18.41;100.00;101333.69;5019123;28;20200;-73
2023/09/13 01:20:15;;;;;;;;;;;;;;;18.40;100.00;101338.13;5036424;28;20232;-72
2023/09/13 01:22:40;;;;;;;;;;;;;;;18.41;100.00;101331.88;5036412;28;19956;-73
2023/09/13 01:25:24;;;;;;;;;;;;;;;18.40;100.00;101324.03;5036255;28;19920;-73
2023/09/13 01:27:58;;;;;;;;;;;;;;;18.38;100.00;101323.28;5036350;28;19912;-73
2023/09/13 01:30:25;;;;;;;;;;;;;;;18.35;100.00;101323.47;5035889;28;19948;-73
2023/09/13 01:32:51;;;;;;;;;;;;;;;18.34;100.00;101327.94;5036745;28;19920;-73
2023/09/13 01:35:16;;;;;;;;;;;;;;;18.35;100.00;101323.47;5036420;28;20111;-73
2023/09/13 01:37:41;;;;;;;;;;;;;;;18.36;100.00;101326.03;5036803;28;19917;-73
2023/09/13 01:40:08;;;;;;;;;;;;;;;18.35;100.00;101332.25;5036611;28;20155;-73
2023/09/13 01:42:36;;;;;;;;;;;;;;;18.31;100.00;101333.41;5035886;28;19924;-73
2023/09/13 01:45:02;;;;;;;;;;;;;;;18.28;100.00;101330.13;5036132;28;19920;-73
2023/09/13 01:47:29;;;;;;;;;;;;;;;18.22;100.00;101331.38;5035835;28;19924;-73
2023/09/13 01:49:55;;;;;;;;;;;;;;;18.17;100.00;101326.38;5036278;28;19980;-73
2023/09/13 01:52:20;;;;;;;;;;;;;;;18.15;100.00;101332.72;5035756;28;20112;-73
2023/09/13 01:54:45;;;;;;;;;;;;;;;18.13;100.00;101340.75;5036241;28;20245;-73
2023/09/13 01:57:10;;;;;;;;;;;;;;;18.05;100.00;101343.06;5035888;28;19979;-73
2023/09/13 01:59:36;;;;;;;;;;;;;;;18.01;100.00;101336.28;5035504;28;20223;-73
2023/09/13 02:02:01;;;;;;;;;;;;;;;17.99;100.00;101339.03;5036629;28;19917;-73
2023/09/13 02:04:31;;;;;;;;;;;;;;;18.03;100.00;101337.88;5035619;28;20182;-73
2023/09/13 02:06:57;;;;;;;;;;;;;;;18.07;100.00;101338.53;5036337;28;19921;-73
2023/09/13 02:09:22;;;;;;;;;;;;;;;18.10;100.00;101345.41;5035442;28;20223;-73
2023/09/13 02:11:48;;;;;;;;;;;;;;;18.12;100.00;101340.88;5036098;28;20200;-73
2023/09/13 02:14:13;;;;;;;;;;;;;;;18.13;100.00;101340.75;5035840;28;19923;-73
2023/09/13 02:16:38;;;;;;;;;;;;;;;18.15;100.00;101346.81;5035613;28;20016;-73
2023/09/13 02:19:04;;;;;;;;;;;;;;;18.17;100.00;101350.25;5036053;28;19913;-73
2023/09/13 02:21:29;;;;;;;;;;;;;;;18.19;100.00;101350.13;5034920;28;19921;-73
2023/09/13 02:23:55;;;;;;;;;;;;;;;18.19;100.00;101353.66;5035908;28;20226;-74
2023/09/13 02:26:23;;;;;;;;;;;;;;;18.19;100.00;101355.41;5034870;28;19917;-74
2023/09/13 02:28:49;;;;;;;;;;;;;;;18.20;100.00;101357.97;5035244;28;19947;-74
2023/09/13 02:31:24;;;;;;;;;;;;;;;18.20;100.00;101352.69;5035370;28;20002;-74
2023/09/13 02:33:50;;;;;;;;;;;;;;;18.20;100.00;101350.03;5035281;28;19913;-74
2023/09/13 02:36:15;;;;;;;;;;;;;;;18.20;100.00;101352.69;5034128;28;19948;-74
2023/09/13 02:38:41;;;;;;;;;;;;;;;18.20;100.00;101365.09;5034859;28;19920;-74
2023/09/13 02:41:06;;;;;;;;;;;;;;;18.19;100.00;101358.94;5015707;28;19972;-74
2023/09/13 02:43:31;;;;;;;;;;;;;;;18.18;100.00;101359.88;5015604;28;20137;-74
2023/09/13 02:45:56;;;;;;;;;;;;;;;18.19;100.00;101366.03;5033882;28;20242;-74
2023/09/13 02:48:22;;;;;;;;;;;;;;;18.17;100.00;101363.50;5027332;28;20001;-74
2023/09/13 02:50:47;;;;;;;;;;;;;;;18.16;100.00;101359.13;5016394;28;20205;-74
2023/09/13 02:53:13;;;;;;;;;;;;;;;18.16;100.00;101358.28;5015374;28;19920;-74
2023/09/13 02:55:38;;;;;;;;;;;;;;;18.14;100.00;101350.44;5029765;28;19924;-74
2023/09/13 02:58:04;;;;;;;;;;;;;;;18.15;100.00;101356.56;5019290;28;19971;-74
2023/09/13 03:00:30;;;;;;;;;;;;;;;18.14;100.00;101361.03;5027318;28;20384;-74
2023/09/13 03:02:55;;;;;;;;;;;;;;;18.15;100.00;101353.94;5035607;28;20219;-74
2023/09/13 03:05:22;;;;;;;;;;;;;;;18.12;100.00;101360.28;5034248;28;19921;-74
2023/09/13 03:07:47;;;;;;;;;;;;;;;18.11;100.00;101353.28;5035506;28;19913;-74
2023/09/13 03:10:12;;;;;;;;;;;;;;;18.11;100.00;101353.28;5034778;28;19924;-74
2023/09/13 03:12:37;;;;;;;;;;;;;;;18.11;100.00;101350.63;5034217;28;20154;-74
2023/09/13 03:15:03;;;;;;;;;;;;;;;18.11;100.00;101355.91;5035311;28;19979;-74
2023/09/13 03:17:28;;;;;;;;;;;;;;;18.10;100.00;101364.84;5034371;28;20159;-74
2023/09/13 03:19:54;;;;;;;;;;;;;;;18.10;100.00;101366.63;5034696;28;20223;-74
2023/09/13 03:22:19;;;;;;;;;;;;;;;18.10;100.00;101363.97;5034251;28;20200;-74
2023/09/13 03:24:44;;;;;;;;;;;;;;;18.09;100.00;101368.44;5034496;28;21123;-74
2023/09/13 03:27:10;;;;;;;;;;;;;;;18.08;100.00;101363.22;5034632;28;20230;-74
2023/09/13 03:29:35;;;;;;;;;;;;;;;18.07;100.00;101367.69;5034939;28;20709;-74
2023/09/13 03:32:01;;;;;;;;;;;;;;;18.06;100.00;101365.97;5035143;28;20089;-74
2023/09/13 03:34:26;;;;;;;;;;;;;;;18.04;100.00;101373.16;5034351;28;20146;-74
2023/09/13 03:36:51;;;;;;;;;;;;;;;18.04;100.00;101370.50;5034903;28;19920;-74
2023/09/13 03:39:17;;;;;;;;;;;;;;;18.03;100.00;101366.19;5034085;28;19948;-74
2023/09/13 03:41:42;;;;;;;;;;;;;;;18.03;100.00;101366.19;5034660;28;20205;-74
2023/09/13 03:44:07;;;;;;;;;;;;;;;18.01;100.00;101371.56;5034895;28;19917;-74
2023/09/13 03:46:32;;;;;;;;;;;;;;;18.00;100.00;101377.81;5034166;28;20170;-74
2023/09/13 03:48:58;;;;;;;;;;;;;;;17.99;100.00;101377.91;5036651;28;20085;-74
2023/09/13 03:51:23;;;;;;;;;;;;;;;17.99;100.00;101380.56;5038573;28;20087;-74
2023/09/13 03:53:48;;;;;;;;;;;;;;;17.99;100.00;101385.84;5038875;28;19912;-74
2023/09/13 03:56:14;;;;;;;;;;;;;;;18.00;100.00;101382.25;5038317;28;19924;-74
2023/09/13 03:58:39;;;;;;;;;;;;;;;17.99;100.00;101378.78;5022691;28;20311;-74
2023/09/13 04:01:04;;;;;;;;;;;;;;;17.98;100.00;101373.56;5032243;28;19917;-74
2023/09/13 04:03:30;;;;;;;;;;;;;;;17.97;100.00;101371.84;5038032;28;19912;-74
2023/09/13 04:05:55;;;;;;;;;;;;;;;17.97;100.00;101374.50;5038104;28;19921;-74
2023/09/13 04:08:21;;;;;;;;;;;;;;;17.97;100.00;101388.63;5037282;28;19919;-74
2023/09/13 04:10:46;;;;;;;;;;;;;;;17.94;100.00;101375.56;5037985;28;19917;-74
2023/09/13 04:13:11;;;;;;;;;;;;;;;17.93;100.00;101373.00;5038614;28;20144;-74
2023/09/13 04:15:36;;;;;;;;;;;;;;;17.91;100.00;101375.75;5037711;28;20199;-74
2023/09/13 04:18:03;;;;;;;;;;;;;;;17.90;100.00;101371.41;5037519;28;19999;-74
2023/09/13 04:20:29;;;;;;;;;;;;;;;17.90;100.00;101370.53;5037082;28;19963;-74
2023/09/13 04:22:54;;;;;;;;;;;;;;;17.90;100.00;101374.06;5038826;28;20248;-74
2023/09/13 04:25:19;;;;;;;;;;;;;;;17.91;100.00;101382.84;5037516;28;20196;-74
2023/09/13 04:27:45;;;;;;;;;;;;;;;17.92;100.00;101388.06;5037505;28;19975;-74
2023/09/13 04:30:11;;;;;;;;;;;;;;;17.92;100.00;101390.72;5038170;28;19912;-74
2023/09/13 04:32:36;;;;;;;;;;;;;;;17.92;100.00;101379.22;5037318;28;20203;-74
2023/09/13 04:35:02;;;;;;;;;;;;;;;17.92;100.00;101374.81;5037810;28;20085;-74
2023/09/13 04:37:28;;;;;;;;;;;;;;;17.92;100.00;101376.59;5037120;28;19917;-74
2023/09/13 04:39:53;;;;;;;;;;;;;;;17.93;100.00;101378.31;5037332;28;20177;-74
2023/09/13 04:42:18;;;;;;;;;;;;;;;17.94;100.00;101387.97;5036861;28;19961;-74
2023/09/13 04:44:44;;;;;;;;;;;;;;;17.93;100.00;101391.53;5036951;28;19928;-74
2023/09/13 04:47:09;;;;;;;;;;;;;;;17.92;100.00;101385.41;5037186;28;19917;-74
2023/09/13 04:49:36;;;;;;;;;;;;;;;17.92;100.00;101393.34;5037085;28;19943;-74
2023/09/13 04:52:02;;;;;;;;;;;;;;;17.82;100.00;101410.72;5035101;28;20153;-74
2023/09/13 04:54:28;;;;;;;;;;;;;;;17.75;100.00;101415.53;5016544;28;20220;-74
2023/09/13 04:56:53;;;;;;;;;;;;;;;17.71;100.00;101422.00;5033003;28;19929;-74
2023/09/13 04:59:18;;;;;;;;;;;;;;;17.59;100.00;101428.03;5036267;28;20212;-74
2023/09/13 05:01:44;;;;;;;;;;;;;;;17.56;100.00;101433.53;5037038;28;20151;-74
2023/09/13 05:04:09;;;;;;;;;;;;;;;17.46;100.00;101431.44;5036854;28;20225;-74
2023/09/13 05:06:34;;;;;;;;;;;;;;;17.34;100.00;101441.91;5035590;28;19920;-74
2023/09/13 05:09:00;;;;;;;;;;;;;;;17.28;100.00;101443.09;5049199;28;19912;-74
2023/09/13 05:11:25;;;;;;;;;;;;;;;17.06;100.00;101449.69;5051910;28;20377;-74
2023/09/13 05:13:51;;;;;;;;;;;;;;;16.96;100.00;101445.03;5037342;28;19913;-74
2023/09/13 05:16:19;;;;;;;;;;;;;;;16.82;100.00;101451.91;5036138;28;19916;-74
2023/09/13 05:18:51;;;;;;;;;;;;;;;16.76;100.00;101451.41;5036604;28;19975;-74
2023/09/13 05:21:16;;;;;;;;;;;;;;;16.58;100.00;101458.59;5017564;28;19921;-74
2023/09/13 05:23:41;;;;;;;;;;;;;;;16.55;100.00;101469.34;5036815;28;19927;-74
2023/09/13 05:26:06;;;;;;;;;;;;;;;16.57;100.00;101478.91;5036683;28;19928;-74
2023/09/13 05:28:33;;;;;;;;;;;;;;;16.45;100.00;101479.59;5024260;28;19917;-74
2023/09/13 05:31:02;;;;;;;;;;;;;;;16.27;100.00;101487.56;5017278;28;20192;-73
2023/09/13 05:33:28;;;;;;;;;;;;;;;16.28;100.00;101489.28;5033366;28;19913;-74
2023/09/13 05:35:54;;;;;;;;;;;;;;;16.25;100.00;101501.81;5036938;28;19927;-74
2023/09/13 05:38:19;;;;;;;;;;;;;;;16.01;100.00;101506.59;5036016;28;19913;-74
2023/09/13 05:40:45;;;;;;;;;;;;;;;15.83;100.00;101511.94;5036411;28;19917;-74
2023/09/13 05:43:10;;;;;;;;;;;;;;;15.78;100.00;101511.31;5036589;28;19913;-74
2023/09/13 05:45:35;;;;;;;;;;;;;;;15.72;100.00;101515.09;5034732;28;19929;-74
2023/09/13 05:48:02;;;;;;;;;;;;;;;15.71;100.00;101516.00;5035422;28;19904;-74
2023/09/13 05:50:27;;;;;;;;;;;;;;;15.65;100.00;101526.06;5035924;28;19923;-74
2023/09/13 05:52:52;;;;;;;;;;;;;;;15.52;100.00;101534.59;5036398;28;20108;-73
2023/09/13 05:55:17;;;;;;;;;;;;;;;15.51;100.00;101546.06;5035454;28;19944;-74
2023/09/13 05:57:43;;;;;;;;;;;;;;;15.49;100.00;101553.22;5034573;28;19913;-74
2023/09/13 06:00:08;;;;;;;;;;;;;;;15.50;100.00;101552.31;5034229;28;19924;-74
2023/09/13 06:02:35;;;;;;;;;;;;;;;15.50;100.00;101557.59;5034435;28;20177;-73
2023/09/13 06:05:00;;;;;;;;;;;;;;;15.45;100.00;101572.78;5034450;28;20216;-74
2023/09/13 06:07:26;;;;;;;;;;;;;;;15.32;100.00;101567.25;5033826;28;20259;-74
2023/09/13 06:09:51;;;;;;;;;;;;;;;15.32;100.00;101567.25;5034570;28;19913;-74
2023/09/13 06:12:17;;;;;;;;;;;;;;;15.33;100.00;101582.19;5034009;28;20263;-74
2023/09/13 06:14:43;;;;;;;;;;;;;;;15.32;100.00;101583.09;5034949;28;19920;-74
2023/09/13 06:17:08;;;;;;;;;;;;;;;15.16;100.00;101593.53;5034052;28;20257;-73
2023/09/13 06:19:34;;;;;;;;;;;;;;;15.19;100.00;101599.59;5034083;28;19948;-73
2023/09/13 06:21:59;;;;;;;;;;;;;;;15.16;100.00;101601.44;5034637;28;19913;-74
2023/09/13 06:24:24;;;;;;;;;;;;;;;15.07;100.00;101614.22;5032407;28;20217;-74
2023/09/13 06:26:49;;;;;;;;;;;;;;;15.12;100.00;101617.50;5032696;28;20262;-73
2023/09/13 06:29:15;;;;;;;;;;;;;;;15.14;100.00;101620.91;5032735;28;19909;-74
2023/09/13 06:31:40;;;;;;;;;;;;;;;15.16;100.00;101625.19;5031929;28;19912;-74
2023/09/13 06:34:05;;;;;;;;;;;;;;;15.15;100.00;101631.41;5032931;28;20227;-73
2023/09/13 06:36:31;;;;;;;;;;;;;;;15.17;100.00;101639.22;5033171;28;19919;-73
2023/09/13 06:38:56;;;;;;;;;;;;;;;15.12;100.00;101636.81;5034268;28;20193;-74
2023/09/13 06:41:21;;;;;;;;;;;;;;;15.17;100.00;101639.22;5034463;28;19913;-73
2023/09/13 06:43:47;;;;;;;;;;;;;;;15.13;100.00;101640.31;5032684;28;19913;-73
2023/09/13 06:46:12;;;;;;;;;;;;;;;15.14;100.00;101645.50;5031791;28;19925;-74
2023/09/13 06:48:37;;;;;;;;;;;;;;;15.15;100.00;101641.97;5031994;28;19913;-73
2023/09/13 06:51:03;;;;;;;;;;;;;;;15.17;100.00;101647.13;5032581;28;19913;-73
2023/09/13 06:53:28;;;;;;;;;;;;;;;15.29;100.00;101657.13;5033775;28;19919;-73
2023/09/13 06:55:53;;;;;;;;;;;;;;;15.26;100.00;101656.41;5033546;28;20047;-73
2023/09/13 06:58:19;;;;;;;;;;;;;;;15.28;100.00;101665.09;5034016;28;19925;-73
2023/09/13 07:00:44;;;;;;;;;;;;;;;15.24;100.00;101669.66;5030664;28;19921;-73
2023/09/13 07:03:09;;;;;;;;;;;;;;;15.31;100.00;101675.53;5033971;28;19924;-73
2023/09/13 07:05:34;;;;;;;;;;;;;;;15.33;100.00;101669.25;5028607;28;19951;-73
2023/09/13 07:08:00;;;;;;;;;;;;;;;15.36;100.00;101681.44;5034416;28;19941;-73
2023/09/13 07:10:26;;;;;;;;;;;;;;;15.47;100.00;101692.34;5033553;28;19928;-73
2023/09/13 07:12:51;;;;;;;;;;;;;;;15.49;100.00;101681.72;5034301;28;20074;-73
2023/09/13 07:15:16;;;;;;;;;;;;;;;15.52;100.00;101693.00;5033280;28;19913;-73
2023/09/13 07:17:42;;;;;;;;;;;;;;;15.57;99.34;101690.09;5034716;28;20231;-73
2023/09/13 07:20:08;;;;;;;;;;;;;;;15.64;99.98;101690.69;5034621;28;20023;-73
2023/09/13 07:22:33;;;;;;;;;;;;;;;15.79;100.00;101697.03;5034935;28;20267;-73
2023/09/13 07:24:58;;;;;;;;;;;;;;;15.81;98.85;101697.81;5038955;28;19917;-73
2023/09/13 07:27:23;;;;;;;;;;;;;;;15.81;97.35;101701.31;5037438;28;20193;-73
2023/09/13 07:29:49;;;;;;;;;;;;;;;15.80;96.43;101709.31;5037955;28;20097;-73
2023/09/13 07:32:15;;;;;;;;;;;;;;;15.85;96.78;101696.75;5037796;28;19944;-73
2023/09/13 07:34:40;;;;;;;;;;;;;;;15.96;96.76;101704.97;5037801;28;19909;-73
2023/09/13 07:37:05;;;;;;;;;;;;;;;16.00;95.82;101705.69;5036715;28;19905;-73
2023/09/13 07:39:30;;;;;;;;;;;;;;;16.09;96.04;101707.88;5037438;28;19941;-72
2023/09/13 07:41:57;;;;;;;;;;;;;;;16.10;94.16;101704.31;5038838;28;19913;-73
2023/09/13 07:44:22;;;;;;;;;;;;;;;16.10;94.04;101707.78;5038346;28;20105;-73
2023/09/13 07:46:47;;;;;;;;;;;;;;;16.20;94.71;101712.63;5038794;28;20307;-73
2023/09/13 07:49:12;;;;;;;;;;;;;;;16.24;94.91;101728.22;5038671;28;19917;-73
2023/09/13 07:51:38;;;;;;;;;;;;;;;16.19;93.87;101742.59;5038703;28;19948;-73
2023/09/13 07:54:07;;;;;;;;;;;;;;;16.14;94.24;101745.50;5038646;28;19913;-73
2023/09/13 07:56:33;;;;;;;;;;;;;;;16.15;94.54;101741.06;5038217;28;19913;-73
2023/09/13 07:58:59;;;;;;;;;;;;;;;16.21;94.86;101751.31;5038545;28;20195;-73
2023/09/13 08:01:24;;;;;;;;;;;;;;;16.22;94.47;101759.16;5037777;28;19963;-73
2023/09/13 08:03:49;;;;;;;;;;;;;;;16.25;92.84;101761.66;5038675;28;19921;-73
2023/09/13 08:06:15;;;;;;;;;;;;;;;16.29;93.39;101765.84;5020106;28;20431;-73
2023/09/13 08:08:40;;;;;;;;;;;;;;;16.33;92.76;101763.91;5025510;28;19917;-73
2023/09/13 08:11:05;;;;;;;;;;;;;;;16.38;92.67;101769.00;5028986;28;20821;-73
2023/09/13 08:13:31;;;;;;;;;;;;;;;16.45;92.13;101773.88;5035532;28;19932;-73
2023/09/13 08:15:56;;;;;;;;;;;;;;;16.50;91.21;101779.78;5036889;28;19913;-73
2023/09/13 08:18:21;;;;;;;;;;;;;;;16.57;90.63;101787.41;5018233;28;19913;-73
2023/09/13 08:20:47;;;;;;;;;;;;;;;16.62;90.24;101788.03;5036847;28;20200;-73
2023/09/13 08:23:12;;;;;;;;;;;;;;;16.69;90.00;101789.44;5037320;28;19920;-73
2023/09/13 08:25:37;;;;;;;;;;;;;;;16.74;89.22;101798.00;5037219;28;19925;-73
2023/09/13 08:28:03;;;;;;;;;;;;;;;16.74;88.33;101800.63;5036316;28;19923;-73
2023/09/13 08:30:29;;;;;;;;;;;;;;;16.76;87.37;101811.16;5033211;28;19917;-73
2023/09/13 08:32:54;;;;;;;;;;;;;;;16.77;87.39;101818.13;5036436;28;19920;-73
2023/09/13 08:35:19;;;;;;;;;;;;;;;16.76;87.58;101819.06;5031722;28;19917;-73
2023/09/13 08:37:45;;;;;;;;;;;;;;;16.81;87.99;101820.56;5034749;28;19940;-73
2023/09/13 08:40:10;;;;;;;;;;;;;;;16.84;88.67;101820.41;5035307;28;19916;-73
2023/09/13 08:42:36;;;;;;;;;;;;;;;16.95;90.48;101827.78;5033584;28;19924;-73
2023/09/13 08:45:02;;;;;;;;;;;;;;;16.99;88.80;101841.72;5035850;28;20208;-73
2023/09/13 08:47:29;;;;;;;;;;;;;;;17.04;89.01;101847.63;5035773;28;19988;-73
2023/09/13 08:49:55;;;;;;;;;;;;;;;17.10;89.10;101855.28;5037117;28;19920;-73
2023/09/13 08:52:21;;;;;;;;;;;;;;;17.13;88.89;101863.03;5036191;28;19980;-73
2023/09/13 08:54:49;;;;;;;;;;;;;;;17.17;89.16;101864.59;5037222;28;20004;-73
2023/09/13 08:57:14;;;;;;;;;;;;;;;17.18;87.27;101870.75;5036859;28;19913;-73
2023/09/13 08:59:40;;;;;;;;;;;;;;;17.15;87.26;101871.75;5035953;28;19935;-73
2023/09/13 09:02:08;;;;;;;;;;;;;;;17.13;87.19;101876.25;5035936;28;19952;-73
2023/09/13 09:04:34;;;;;;;;;;;;;;;17.11;86.89;101891.38;5035646;28;19958;-73
2023/09/13 09:07:00;;;;;;;;;;;;;;;17.08;86.80;101881.81;5035987;28;20239;-73
2023/09/13 09:09:31;;;;;;;;;;;;;;;17.06;87.51;101883.69;5035538;28;19913;-73
2023/09/13 09:11:57;;;;;;;;;;;;;;;17.06;87.41;101888.09;5035809;28;19917;-73
2023/09/13 09:14:22;;;;;;;;;;;;;;;17.08;87.70;101895.03;5035596;28;19913;-73
2023/09/13 09:16:50;;;;;;;;;;;;;;;17.08;87.65;101895.03;5036548;28;19917;-73
2023/09/13 09:19:15;;;;;;;;;;;;;;;17.14;88.57;101896.50;5036420;28;19979;-73
2023/09/13 09:21:40;;;;;;;;;;;;;;;17.21;88.63;101897.91;5036330;28;20118;-73
2023/09/13 09:24:06;;;;;;;;;;;;;;;17.29;88.11;101905.44;5036311;28;19921;-73
2023/09/13 09:26:31;;;;;;;;;;;;;;;17.27;86.47;101888.78;5035522;28;20229;-73
2023/09/13 09:29:12;;;;;;;;;;;;;;;17.26;86.84;101897.66;5036429;28;19919;-73
2023/09/13 09:31:39;;;;;;;;;;;;;;;17.25;86.12;101895.97;5036438;28;19955;-73
2023/09/13 09:34:04;;;;;;;;;;;;;;;17.32;86.84;101901.78;5036326;28;19913;-73
2023/09/13 09:36:34;;;;;;;;;;;;;;;17.38;85.63;101910.25;5035706;28;19996;-73
2023/09/13 09:39:03;;;;;;;;;;;;;;;17.41;85.70;101912.75;5035940;28;20231;-73
2023/09/13 09:41:32;;;;;;;;;;;;;;;17.44;85.82;101907.31;5035322;28;19917;-73
2023/09/13 09:43:58;;;;;;;;;;;;;;;17.43;84.93;101920.63;5032776;28;20189;-73
2023/09/13 09:46:23;;;;;;;;;;;;;;;17.42;84.67;101919.75;5034542;28;19921;-73
2023/09/13 09:48:50;;;;;;;;;;;;;;;17.40;83.84;101921.63;5036230;28;19939;-73
2023/09/13 09:51:16;;;;;;;;;;;;;;;17.40;83.45;101926.91;5035952;28;19932;-73
2023/09/13 09:53:41;;;;;;;;;;;;;;;17.44;83.98;101922.31;5035440;28;19912;-73
2023/09/13 09:56:06;;;;;;;;;;;;;;;17.55;82.88;101919.97;5035781;28;19924;-73
2023/09/13 09:58:32;;;;;;;;;;;;;;;17.64;83.36;101924.78;5035301;28;20219;-73
2023/09/13 10:01:00;;;;;;;;;;;;;;;17.66;80.81;101935.28;5035918;28;19917;-73
2023/09/13 10:03:25;;;;;;;;;;;;;;;17.71;80.80;101943.00;5035237;28;20212;-73
2023/09/13 10:05:55;;;;;;;;;;;;;;;17.72;80.26;101942.03;5035509;28;19955;-73
2023/09/13 10:08:35;;;;;;;;;;;;;;;17.82;80.62;101940.63;5035029;28;19913;-73
2023/09/13 10:11:01;;;;;;;;;;;;;;;17.88;79.27;101948.25;5035545;28;19992;-73
2023/09/13 10:13:26;;;;;;;;;;;;;;;17.94;78.26;101941.81;5034405;28;19944;-73
2023/09/13 10:15:51;;;;;;;;;;;;;;;17.99;79.25;101945.91;5035661;28;20430;-73
2023/09/13 10:18:17;;;;;;;;;;;;;;;18.03;78.83;101946.59;5035356;28;20247;-74
2023/09/13 10:20:44;;;;;;;;;;;;;;;18.04;77.20;101950.94;5035757;28;19916;-73
2023/09/13 10:23:11;;;;;;;;;;;;;;;18.05;78.16;101946.53;5034708;28;19921;-73
2023/09/13 10:25:37;;;;;;;;;;;;;;;17.99;77.17;101951.22;5034532;28;20274;-73
2023/09/13 10:28:04;;;;;;;;;;;;;;;17.95;77.25;101957.59;5035181;28;19913;-73
2023/09/13 10:30:33;;;;;;;;;;;;;;;17.96;78.23;101958.47;5034613;28;19954;-73
2023/09/13 10:32:58;;;;;;;;;;;;;;;17.92;78.40;101962.19;5035403;28;19948;-73
2023/09/13 10:35:25;;;;;;;;;;;;;;;17.97;78.04;101957.50;5034868;28;20227;-73
2023/09/13 10:37:56;;;;;;;;;;;;;;;18.03;78.06;101959.84;5035250;28;20011;-73
2023/09/13 10:40:32;;;;;;;;;;;;;;;18.16;79.69;101965.34;5034683;28;19911;-73
2023/09/13 10:42:58;;;;;;;;;;;;;;;18.26;79.81;101965.69;5034991;28;19916;-73
2023/09/13 10:45:24;;;;;;;;;;;;;;;18.31;79.58;101968.94;5034777;28;20136;-73
2023/09/13 10:47:51;;;;;;;;;;;;;;;18.28;78.90;101975.28;5035105;28;20231;-73
2023/09/13 10:50:17;;;;;;;;;;;;;;;18.17;78.36;101974.97;5034415;28;19920;-73
2023/09/13 10:52:43;;;;;;;;;;;;;;;18.14;79.19;101975.19;5035104;28;19913;-73
2023/09/13 10:55:09;;;;;;;;;;;;;;;18.09;82.82;101986.00;5034757;28;20053;-73
2023/09/13 10:57:35;;;;;;;;;;;;;;;18.03;84.05;101984.56;5033690;28;19920;-73
2023/09/13 11:00:05;;;;;;;;;;;;;;;18.07;84.89;102003.81;5035041;28;19991;-73
2023/09/13 11:02:33;;;;;;;;;;;;;;;17.98;85.79;101997.19;5033694;28;19916;-73
2023/09/13 11:04:58;;;;;;;;;;;;;;;17.92;86.77;102009.91;5034632;28;19917;-73
2023/09/13 11:07:24;;;;;;;;;;;;;;;17.57;83.86;102034.66;5034288;28;20298;-73
2023/09/13 11:09:49;;;;;;;;;;;;;;;17.36;82.62;102020.69;5034760;28;19917;-73
2023/09/13 11:12:14;;;;;;;;;;;;;;;17.17;80.51;102026.06;5035766;28;19939;-73
2023/09/13 11:14:50;;;;;;;;;;;;;;;17.23;81.26;102031.03;5034295;28;19939;-73
2023/09/13 11:17:37;;;;;;;;;;;;;;;17.17;79.27;102028.72;5034822;28;19920;-73
2023/09/13 11:20:21;;;;;;;;;;;;;;;17.16;79.53;102034.06;5034956;28;20115;-73
2023/09/13 11:23:01;;;;;;;;;;;;;;;17.28;80.08;102036.09;5033982;28;19923;-73
2023/09/13 11:25:30;;;;;;;;;;;;;;;17.34;77.70;102035.81;5034270;28;19917;-73
2023/09/13 11:27:56;;;;;;;;;;;;;;;17.34;77.46;102042.91;5034632;28;19944;-73
2023/09/13 11:30:41;;;;;;;;;;;;;;;17.32;77.40;102048.25;5034338;28;20112;-73
2023/09/13 11:33:07;;;;;;;;;;;;;;;17.24;76.64;102050.41;5025386;28;19939;-73
2023/09/13 11:35:34;;;;;;;;;;;;;;;17.19;77.72;102050.66;5033641;28;19912;-73
2023/09/13 11:37:59;;;;;;;;;;;;;;;17.25;78.93;102041.56;5033923;28;19923;-73
2023/09/13 11:40:24;;;;;;;;;;;;;;;17.32;78.04;102047.38;5030608;28;19976;-73
2023/09/13 11:42:51;;;;;;;;;;;;;;;17.26;77.19;102051.19;5033545;28;19916;-73
2023/09/13 11:45:17;;;;;;;;;;;;;;;17.33;78.23;102062.34;5032774;28;20006;-73
2023/09/13 11:47:42;;;;;;;;;;;;;;;17.44;80.39;102062.66;5034488;28;19954;-73
2023/09/13 11:50:08;;;;;;;;;;;;;;;17.54;79.97;102061.28;5034276;28;19921;-73
2023/09/13 11:52:52;;;;;;;;;;;;;;;17.61;79.28;102053.88;5033866;28;19920;-73
2023/09/13 11:55:25;;;;;;;;;;;;;;;17.65;79.30;102071.34;5032213;28;20243;-73
2023/09/13 11:57:51;;;;;;;;;;;;;;;17.60;78.89;102074.19;5033479;28;19912;-73
2023/09/13 12:00:21;;;;;;;;;;;;;;;17.63;80.56;102075.84;5033795;28;20155;-73
2023/09/13 12:02:47;;;;;;;;;;;;;;;17.62;79.65;102067.03;5034336;28;19945;-73
2023/09/13 12:05:12;;;;;;;;;;;;;;;17.60;78.42;102066.25;5033473;28;20208;-73
2023/09/13 12:07:37;;;;;;;;;;;;;;;17.53;76.41;102079.91;5033652;28;19917;-73
2023/09/13 12:10:04;;;;;;;;;;;;;;;17.55;75.56;102084.16;5020635;28;20059;-73
2023/09/13 12:12:38;;;;;;;;;;;;;;;17.56;75.33;102085.91;5037654;28;20180;-73
2023/09/13 12:15:05;;;;;;;;;;;;;;;17.59;74.46;102079.56;5034403;28;19924;-73
2023/09/13 12:17:37;;;;;;;;;;;;;;;17.60;73.81;102092.75;5036517;28;19913;-73
2023/09/13 12:20:05;;;;;;;;;;;;;;;17.62;74.85;102088.22;5036430;28;20007;-73
2023/09/13 12:22:37;;;;;;;;;;;;;;;17.69;74.60;102093.22;5035797;28;19908;-73
2023/09/13 12:25:02;;;;;;;;;;;;;;;17.72;73.92;102095.69;5036444;28;20244;-73
2023/09/13 12:27:28;;;;;;;;;;;;;;;17.75;73.63;102095.56;5035556;28;20270;-73